Time;durP1;ratioP1;P1;durP2;ratioP2;P2;SDS_P1;SDS_P2;PMS_P1;PMS_P2;Temp;Humidity;BMP_temperature;BMP_pressure;BME280_temperature;BME280_humidity;BME280_pressure;Samples;Min_cycle;Max_cycle;Signal;HPM_P1;HPM_P2
2021/04/14 00:00:22;;;;;;;4.05;2.25;;;;;;;0.16;73.70;103458.09;5044267;28;20053;-74
2021/04/14 00:02:50;;;;;;;2.83;2.08;;;;;;;0.21;74.02;103455.72;5040239;28;20060;-75
2021/04/14 00:05:20;;;;;;;4.07;2.10;;;;;;;0.22;73.92;103453.16;5041433;28;21377;-74
2021/04/14 00:07:48;;;;;;;3.03;2.00;;;;;;;0.29;74.81;103462.25;5039713;28;20057;-78
2021/04/14 00:10:19;;;;;;;2.50;2.00;;;;;;;0.33;74.81;103459.88;5041430;28;20060;-73
2021/04/14 00:12:45;;;;;;;2.65;2.03;;;;;;;0.52;75.77;103456.47;5040832;28;20057;-74
2021/04/14 00:15:16;;;;;;;3.08;2.15;;;;;;;0.55;73.91;103461.00;5040790;28;20048;-75
2021/04/14 00:17:43;;;;;;;3.05;2.03;;;;;;;0.51;73.92;103466.91;5036875;28;20053;-72
2021/04/14 00:20:12;;;;;;;3.00;2.00;;;;;;;0.50;72.70;103466.00;5042390;28;20057;-74
2021/04/14 00:22:40;;;;;;;2.95;2.22;;;;;;;0.53;72.74;103460.91;5038702;28;20368;-74
2021/04/14 00:25:09;;;;;;;3.47;2.30;;;;;;;0.59;73.15;103464.69;5041451;28;20107;-74
2021/04/14 00:27:37;;;;;;;2.05;1.88;;;;;;;0.65;73.11;103465.00;5040580;28;20063;-73
2021/04/14 00:30:06;;;;;;;3.97;2.55;;;;;;;0.72;73.28;103465.38;5038958;28;20064;-73
2021/04/14 00:32:33;;;;;;;5.40;2.90;;;;;;;0.84;73.76;103461.56;5038734;28;20076;-73
2021/04/14 00:35:00;;;;;;;3.92;2.55;;;;;;;0.87;73.81;103462.63;5036473;28;20052;-73
2021/04/14 00:37:28;;;;;;;6.32;2.67;;;;;;;0.99;73.97;103457.06;5039812;28;20057;-74
2021/04/14 00:39:54;;;;;;;4.00;2.60;;;;;;;1.01;73.54;103450.16;5036415;28;20060;-74
2021/04/14 00:42:21;;;;;;;5.15;2.92;;;;;;;1.01;73.88;103451.91;5038378;28;20060;-74
2021/04/14 00:44:48;;;;;;;4.15;2.88;;;;;;;1.00;74.25;103452.69;5040731;28;20065;-74
2021/04/14 00:47:17;;;;;;;4.88;3.05;;;;;;;0.98;74.35;103452.63;5041499;28;20057;-74
2021/04/14 00:49:45;;;;;;;4.10;2.70;;;;;;;0.96;74.04;103445.50;5034882;28;20104;-74
2021/04/14 00:52:12;;;;;;;4.47;2.85;;;;;;;0.95;73.94;103449.84;5041390;28;20603;-74
2021/04/14 00:54:40;;;;;;;5.03;2.90;;;;;;;0.91;73.97;103440.91;5036005;28;20313;-74
2021/04/14 00:57:07;;;;;;;5.80;2.97;;;;;;;0.90;74.36;103443.44;5040023;28;20068;-74
2021/04/14 00:59:35;;;;;;;4.07;2.70;;;;;;;0.89;73.96;103444.28;5039757;28;20337;-73
2021/04/14 01:02:03;;;;;;;4.57;2.85;;;;;;;0.92;74.28;103447.97;5040401;28;20069;-74
2021/04/14 01:04:29;;;;;;;5.15;2.70;;;;;;;0.89;74.01;103453.06;5040986;28;20155;-74
2021/04/14 01:06:56;;;;;;;4.25;2.80;;;;;;;0.86;73.88;103442.41;5039203;28;20061;-73
2021/04/14 01:09:23;;;;;;;3.70;2.60;;;;;;;0.84;73.96;103445.78;5041978;28;20061;-74
2021/04/14 01:11:50;;;;;;;4.25;2.90;;;;;;;0.84;75.25;103440.53;5037577;28;20580;-74
2021/04/14 01:14:17;;;;;;;4.93;3.17;;;;;;;0.82;75.38;103443.09;5044813;28;20057;-73
2021/04/14 01:16:44;;;;;;;4.38;2.83;;;;;;;0.81;74.23;103441.28;5035253;28;20069;-73
2021/04/14 01:19:11;;;;;;;4.35;2.65;;;;;;;0.80;74.95;103441.19;5038244;28;20344;-73
2021/04/14 01:21:41;;;;;;;4.57;2.60;;;;;;;0.77;74.75;103431.44;5036525;28;20060;-73
2021/04/14 01:24:09;;;;;;;5.20;3.00;;;;;;;0.81;76.10;103440.38;5041247;28;20460;-73
2021/04/14 01:26:36;;;;;;;4.05;2.30;;;;;;;0.77;75.98;103438.41;5033038;28;20106;-72
2021/04/14 01:29:05;;;;;;;3.85;2.67;;;;;;;0.73;75.35;103443.53;5040229;28;20092;-71
2021/04/14 01:31:35;;;;;;;3.72;2.50;;;;;;;0.72;75.21;103446.97;5039050;28;20575;-71
2021/04/14 01:34:04;;;;;;;4.43;3.00;;;;;;;0.71;76.38;103439.00;5038134;28;20052;-71
2021/04/14 01:36:31;;;;;;;4.18;2.60;;;;;;;0.63;75.68;103436.00;5032756;28;20088;-72
2021/04/14 01:38:59;;;;;;;4.32;2.42;;;;;;;0.62;75.13;103439.47;5037341;28;20065;-71
2021/04/14 01:41:26;;;;;;;4.07;2.33;;;;;;;0.58;75.02;103442.75;5039558;28;20049;-71
2021/04/14 01:43:53;;;;;;;4.13;2.63;;;;;;;0.56;76.14;103447.00;5036965;28;20412;-71
2021/04/14 01:46:20;;;;;;;4.97;2.55;;;;;;;0.54;76.41;103444.31;5038704;28;20083;-72
2021/04/14 01:48:48;;;;;;;3.20;2.28;;;;;;;0.54;75.74;103444.31;5037624;28;20324;-71
2021/04/14 01:51:15;;;;;;;5.03;2.95;;;;;;;0.60;77.15;103437.59;5038742;28;20079;-71
2021/04/14 01:53:42;;;;;;;4.28;2.58;;;;;;;0.56;76.48;103444.38;5035378;28;20374;-71
2021/04/14 01:56:10;;;;;;;4.28;2.72;;;;;;;0.54;76.63;103438.16;5039728;28;20057;-74
2021/04/14 01:58:37;;;;;;;4.53;2.78;;;;;;;0.54;77.35;103430.28;5035856;28;20152;-74
2021/04/14 02:01:07;;;;;;;4.20;2.55;;;;;;;0.53;77.27;103439.00;5039986;28;20083;-74
2021/04/14 02:03:37;;;;;;;3.75;2.45;;;;;;;0.47;76.96;103436.06;5035430;28;20355;-74
2021/04/14 02:06:05;;;;;;;5.25;2.50;;;;;;;0.44;76.77;103442.03;5040577;28;20116;-73
2021/04/14 02:08:32;;;;;;;5.10;2.90;;;;;;;0.43;77.87;103442.88;5035985;28;20057;-73
2021/04/14 02:10:59;;;;;;;6.75;3.45;;;;;;;0.38;78.29;103430.34;5041140;28;20060;-75
2021/04/14 02:13:29;;;;;;;5.25;2.80;;;;;;;0.34;77.52;103430.19;5037124;28;20057;-73
2021/04/14 02:15:56;;;;;;;4.53;3.10;;;;;;;0.30;77.73;103436.06;5035958;28;20231;-72
2021/04/14 02:18:24;;;;;;;4.47;2.40;;;;;;;0.28;77.57;103436.84;5041363;28;20579;-75
2021/04/14 02:20:51;;;;;;;5.18;3.05;;;;;;;0.26;78.49;103439.38;5036081;28;20064;-75
2021/04/14 02:23:21;;;;;;;4.57;3.60;;;;;;;0.25;79.00;103432.31;5038559;28;20092;-75
2021/04/14 02:25:48;;;;;;;4.63;2.80;;;;;;;0.24;78.73;103420.03;5036043;28;20053;-72
2021/04/14 02:28:16;;;;;;;5.68;3.28;;;;;;;0.18;78.98;103431.09;5040070;28;20091;-73
2021/04/14 02:30:48;;;;;;;5.55;2.78;;;;;;;0.13;78.45;103432.56;5036542;28;20061;-73
2021/04/14 02:33:15;;;;;;;4.57;2.58;;;;;;;0.11;78.67;103431.59;5037785;28;20073;-75
2021/04/14 02:35:42;;;;;;;5.13;3.00;;;;;;;0.09;79.08;103425.38;5036456;28;20071;-74
2021/04/14 02:38:12;;;;;;;5.57;2.97;;;;;;;0.08;79.22;103415.69;5039134;28;20348;-75
2021/04/14 02:40:39;;;;;;;4.72;2.85;;;;;;;0.06;79.69;103419.94;5036352;28;20494;-73
2021/04/14 02:43:06;;;;;;;6.38;2.95;;;;;;;0.03;79.46;103417.16;5039417;28;20470;-73
2021/04/14 02:45:35;;;;;;;4.82;2.90;;;;;;;0.02;80.12;103419.69;5037912;28;20076;-73
2021/04/14 02:48:04;;;;;;;4.18;2.63;;;;;;;0.01;79.75;103418.81;5042691;28;20057;-73
2021/04/14 02:50:31;;;;;;;4.13;2.72;;;;;;;0.01;79.16;103423.16;5036778;28;20072;-73
2021/04/14 02:52:58;;;;;;;5.00;2.78;;;;;;;-0.03;79.43;103415.13;5041678;28;20061;-74
2021/04/14 02:55:29;;;;;;;4.28;2.63;;;;;;;-0.03;79.74;103417.75;5036507;28;20092;-73
2021/04/14 02:57:56;;;;;;;3.85;2.70;;;;;;;0.00;79.79;103417.03;5037245;28;20111;-75
2021/04/14 03:00:25;;;;;;;6.22;3.50;;;;;;;0.05;80.68;103412.91;5042817;28;20380;-72
2021/04/14 03:02:51;;;;;;;4.80;2.83;;;;;;;0.04;79.71;103411.09;5035234;28;20738;-71
2021/04/14 03:05:24;;;;;;;4.93;3.15;;;;;;;0.05;80.47;103399.78;5040459;28;20152;-71
2021/04/14 03:07:51;;;;;;;3.75;2.65;;;;;;;0.11;80.16;103409.69;5034593;28;20075;-71
2021/04/14 03:10:19;;;;;;;4.35;3.17;;;;;;;0.08;80.02;103404.28;5043437;28;20447;-71
2021/04/14 03:12:47;;;;;;;4.97;3.17;;;;;;;0.07;79.98;103408.63;5035207;28;20127;-71
2021/04/14 03:15:15;;;;;;;3.35;2.65;;;;;;;0.09;79.70;103414.88;5038321;28;20490;-71
2021/04/14 03:17:42;;;;;;;6.25;3.40;;;;;;;0.09;80.20;103408.72;5038927;28;20110;-71
2021/04/14 03:20:11;;;;;;;5.15;3.22;;;;;;;0.11;79.83;103407.06;5043454;28;20057;-71
2021/04/14 03:22:40;;;;;;;4.80;2.83;;;;;;;0.09;80.03;103406.09;5040103;28;20394;-72
2021/04/14 03:25:08;;;;;;;4.45;2.78;;;;;;;0.09;80.03;103414.88;5043432;28;20057;-70
2021/04/14 03:27:35;;;;;;;5.63;3.15;;;;;;;0.11;80.62;103410.59;5040239;28;20058;-71
2021/04/14 03:30:05;;;;;;;5.47;3.25;;;;;;;0.06;79.98;103396.31;5037193;28;20469;-71
2021/04/14 03:32:32;;;;;;;4.90;3.00;;;;;;;0.11;80.25;103402.72;5042997;28;20063;-71
2021/04/14 03:35:00;;;;;;;5.43;3.10;;;;;;;0.12;81.22;103406.22;5042400;28;20409;-73
2021/04/14 03:37:27;;;;;;;5.63;3.15;;;;;;;0.06;80.08;103404.19;5041351;28;20072;-74
2021/04/14 03:39:55;;;;;;;5.65;3.40;;;;;;;0.18;81.66;103409.19;5039228;28;20087;-74
2021/04/14 03:42:21;;;;;;;5.00;3.08;;;;;;;0.12;80.59;103404.53;5043052;28;20061;-74
2021/04/14 03:44:51;;;;;;;5.65;2.80;;;;;;;0.11;80.52;103402.72;5041437;28;20060;-74
2021/04/14 03:47:18;;;;;;;5.30;2.85;;;;;;;0.11;80.64;103400.09;5043113;28;20065;-74
2021/04/14 03:49:45;;;;;;;4.32;2.33;;;;;;;0.15;80.41;103409.94;5054362;28;20098;-74
2021/04/14 03:52:12;;;;;;;6.50;3.20;;;;;;;0.14;80.42;103397.63;5043663;28;20175;-74
2021/04/14 03:54:39;;;;;;;3.65;2.40;;;;;;;0.15;80.14;103396.81;5039496;28;20188;-73
2021/04/14 03:57:25;;;;;;;6.32;3.50;;;;;;;0.21;80.65;103403.22;5037978;28;20113;-74
2021/04/14 03:59:52;;;;;;;5.05;3.15;;;;;;;0.21;80.45;103392.69;5035332;28;20131;-74
2021/04/14 04:02:19;;;;;;;6.43;3.50;;;;;;;0.17;80.37;103387.28;5041719;28;20064;-71
2021/04/14 04:04:46;;;;;;;5.47;3.17;;;;;;;0.15;80.56;103394.19;5039628;28;20068;-72
2021/04/14 04:07:13;;;;;;;6.32;3.58;;;;;;;0.17;80.49;103389.00;5038446;28;20069;-72
2021/04/14 04:09:39;;;;;;;5.55;2.88;;;;;;;0.17;80.69;103379.41;5043123;28;20071;-71
2021/04/14 04:12:09;;;;;;;10.55;5.85;;;;;;;0.15;80.69;103375.81;5038657;28;20418;-71
2021/04/14 04:14:47;;;;;;;6.95;4.22;;;;;;;0.15;80.37;103386.31;5041873;28;20053;-72
2021/04/14 04:17:14;;;;;;;6.47;3.55;;;;;;;0.16;80.69;103390.72;5039714;28;20079;-72
2021/04/14 04:19:42;;;;;;;5.90;3.28;;;;;;;0.23;80.49;103385.78;5039695;28;20065;-72
2021/04/14 04:22:09;;;;;;;3.78;2.58;;;;;;;0.16;80.13;103397.72;5035717;28;20059;-73
2021/04/14 04:24:36;;;;;;;5.43;3.20;;;;;;;0.17;80.84;103394.25;5038338;28;20153;-72
2021/04/14 04:27:04;;;;;;;4.75;3.00;;;;;;;0.22;80.48;103391.84;5035386;28;20053;-72
2021/04/14 04:29:31;;;;;;;4.88;3.03;;;;;;;0.24;80.51;103392.84;5041761;28;20057;-72
2021/04/14 04:31:58;;;;;;;5.57;3.22;;;;;;;0.27;80.86;103396.50;5038655;28;20057;-74
2021/04/14 04:34:25;;;;;;;5.45;3.47;;;;;;;0.31;80.66;103392.34;5039986;28;20311;-74
2021/04/14 04:36:52;;;;;;;7.25;4.20;;;;;;;0.34;80.55;103388.16;5034928;28;20107;-74
2021/04/14 04:39:20;;;;;;;5.70;3.13;;;;;;;0.38;80.79;103390.94;5044691;28;20070;-74
2021/04/14 04:41:47;;;;;;;6.32;3.47;;;;;;;0.42;80.63;103385.88;5037835;28;20061;-73
2021/04/14 04:44:15;;;;;;;6.72;4.57;;;;;;;0.54;81.32;103394.38;5039745;28;20063;-73
2021/04/14 04:46:41;;;;;;;6.28;3.70;;;;;;;0.60;81.05;103391.19;5034300;28;20052;-74
2021/04/14 04:49:12;;;;;;;6.15;3.30;;;;;;;0.62;80.89;103391.25;5038746;28;20080;-74
2021/04/14 04:51:38;;;;;;;5.47;3.55;;;;;;;0.65;80.87;103400.19;5038906;28;20064;-74
2021/04/14 04:54:06;;;;;;;7.10;3.90;;;;;;;0.71;81.06;103392.59;5036846;28;21080;-74
2021/04/14 04:56:33;;;;;;;6.10;3.30;;;;;;;0.72;80.99;103399.66;5041599;28;20053;-74
2021/04/14 04:59:00;;;;;;;4.53;2.72;;;;;;;0.75;80.09;103396.31;5035859;28;20079;-74
2021/04/14 05:01:27;;;;;;;5.45;3.00;;;;;;;0.78;80.23;103393.81;5055661;28;20057;-72
2021/04/14 05:03:54;;;;;;;4.75;2.92;;;;;;;0.77;80.31;103401.59;5039319;28;20075;-73
2021/04/14 05:06:22;;;;;;;5.05;3.25;;;;;;;0.81;80.90;103403.59;5040248;28;20320;-73
2021/04/14 05:08:49;;;;;;;5.43;3.25;;;;;;;0.83;81.19;103397.56;5055817;28;20061;-74
2021/04/14 05:11:16;;;;;;;5.60;3.83;;;;;;;0.86;80.87;103397.72;5039935;28;20072;-74
2021/04/14 05:13:43;;;;;;;6.30;3.70;;;;;;;0.87;80.83;103395.97;5037291;28;20091;-74
2021/04/14 05:16:10;;;;;;;5.40;3.85;;;;;;;0.88;80.49;103397.78;5036701;28;20088;-75
2021/04/14 05:18:36;;;;;;;7.00;3.92;;;;;;;0.88;80.24;103403.94;5040820;28;20057;-73
2021/04/14 05:21:06;;;;;;;6.00;3.83;;;;;;;0.91;80.50;103413.72;5056399;28;20088;-74
2021/04/14 05:23:34;;;;;;;8.35;3.63;;;;;;;0.96;79.96;103416.59;5039118;28;20065;-75
2021/04/14 05:26:00;;;;;;;6.72;3.67;;;;;;;1.09;79.68;103418.94;5040211;28;20126;-73
2021/04/14 05:28:27;;;;;;;4.55;3.15;;;;;;;1.14;80.02;103434.97;5038993;28;20131;-75
2021/04/14 05:30:55;;;;;;;6.65;4.18;;;;;;;1.21;78.91;103437.97;5036587;28;20535;-73
2021/04/14 05:33:23;;;;;;;5.70;3.20;;;;;;;1.25;78.82;103439.03;5040002;28;20071;-74
2021/04/14 05:35:51;;;;;;;6.63;4.05;;;;;;;1.45;78.11;103446.13;5038110;28;20425;-74
2021/04/14 05:38:18;;;;;;;7.25;3.67;;;;;;;1.71;75.30;103438.53;5041676;28;20332;-74
2021/04/14 05:40:46;;;;;;;7.05;3.60;;;;;;;1.87;74.82;103434.88;5034012;28;20065;-74
2021/04/14 05:43:18;;;;;;;8.02;4.10;;;;;;;2.05;73.91;103440.06;5036287;28;20061;-74
2021/04/14 05:45:46;;;;;;;7.32;4.35;;;;;;;2.08;74.92;103434.03;5037472;28;20076;-75
2021/04/14 05:48:14;;;;;;;7.65;4.60;;;;;;;2.11;75.84;103431.53;5040363;28;20064;-74
2021/04/14 05:50:41;;;;;;;7.40;4.68;;;;;;;2.12;75.80;103439.50;5032705;28;20329;-75
2021/04/14 05:53:08;;;;;;;9.00;5.07;;;;;;;2.10;77.17;103459.63;5040031;28;20066;-74
2021/04/14 05:55:34;;;;;;;8.27;4.68;;;;;;;2.08;77.10;103458.66;5042344;28;20057;-74
2021/04/14 05:58:02;;;;;;;6.88;4.43;;;;;;;2.04;78.04;103459.34;5037466;28;20072;-74
2021/04/14 06:00:29;;;;;;;9.27;5.35;;;;;;;2.02;78.01;103466.28;5038213;28;20139;-74
2021/04/14 06:02:56;;;;;;;8.88;5.28;;;;;;;2.07;79.96;103463.84;5034604;28;20402;-72
2021/04/14 06:05:23;;;;;;;10.00;5.22;;;;;;;2.09;80.12;103468.34;5038898;28;20071;-72
2021/04/14 06:07:50;;;;;;;8.50;5.25;;;;;;;2.07;80.38;103472.66;5034637;28;20085;-73
2021/04/14 06:10:20;;;;;;;9.35;5.85;;;;;;;1.97;79.17;103460.78;5038082;28;20084;-73
2021/04/14 06:12:47;;;;;;;8.68;5.65;;;;;;;1.97;79.77;103480.97;5039874;28;20271;-72
2021/04/14 06:15:18;;;;;;;9.48;5.90;;;;;;;1.98;80.27;103490.69;5039441;28;20056;-72
2021/04/14 06:17:45;;;;;;;7.65;5.28;;;;;;;2.01;80.85;103491.72;5038987;28;20083;-75
2021/04/14 06:20:15;;;;;;;8.70;4.88;;;;;;;2.04;80.75;103491.88;5039070;28;20064;-74
2021/04/14 06:22:42;;;;;;;8.50;5.38;;;;;;;2.05;80.65;103490.13;5038223;28;20063;-74
2021/04/14 06:25:12;;;;;;;8.32;4.68;;;;;;;2.03;80.27;103495.31;5041931;28;20065;-75
2021/04/14 06:27:44;;;;;;;10.13;5.65;;;;;;;2.03;79.98;103490.06;5035770;28;20156;-75
2021/04/14 06:30:12;;;;;;;10.05;5.65;;;;;;;2.10;78.83;103490.34;5038948;28;20071;-74
2021/04/14 06:32:41;;;;;;;9.70;5.93;;;;;;;2.15;80.04;103486.19;5040894;28;20065;-72
2021/04/14 06:35:09;;;;;;;12.02;7.15;;;;;;;2.15;81.14;103481.81;5041889;28;20470;-73
2021/04/14 06:37:36;;;;;;;10.82;7.05;;;;;;;2.21;80.68;103490.00;5043725;28;20061;-74
2021/04/14 06:40:24;;;;;;;9.90;6.43;;;;;;;2.30;79.98;103496.47;5040832;28;20061;-74
2021/04/14 06:43:02;;;;;;;9.88;6.18;;;;;;;2.38;80.23;103492.47;5040148;28;20061;-73
2021/04/14 06:45:36;;;;;;;12.13;6.82;;;;;;;2.43;80.39;103502.38;5039132;28;20060;-71
2021/04/14 06:48:17;;;;;;;11.38;8.30;;;;;;;2.43;80.91;103499.75;5042118;28;20456;-71
2021/04/14 06:50:50;;;;;;;10.30;6.38;;;;;;;2.54;80.94;103496.69;5038490;28;20063;-71
2021/04/14 06:53:25;;;;;;;11.88;6.97;;;;;;;2.60;80.19;103494.28;5042900;28;20061;-72
2021/04/14 06:55:57;;;;;;;10.02;5.88;;;;;;;2.74;80.34;103490.53;5039046;28;20130;-74
2021/04/14 06:58:33;;;;;;;11.77;7.32;;;;;;;2.85;80.35;103490.09;5042899;28;20132;-74
2021/04/14 07:01:04;;;;;;;10.65;6.82;;;;;;;2.96;79.48;103494.06;5057237;28;20068;-74
2021/04/14 07:03:41;;;;;;;10.27;7.15;;;;;;;3.20;80.27;103486.25;5042121;28;20057;-75
2021/04/14 07:06:11;;;;;;;12.63;7.72;;;;;;;3.48;78.94;103480.34;5043782;28;20056;-76
2021/04/14 07:09:05;;;;;;;10.57;7.07;;;;;;;3.71;77.84;103482.97;5042526;28;20084;-76
2021/04/14 07:11:34;;;;;;;11.88;7.55;;;;;;;3.71;74.84;103478.63;5045927;28;20069;-76
2021/04/14 07:14:01;;;;;;;11.27;7.05;;;;;;;3.85;76.61;103476.50;5044077;28;20116;-76
2021/04/14 07:16:41;;;;;;;10.15;6.80;;;;;;;4.11;76.67;103474.81;5042741;28;20061;-75
2021/04/14 07:19:20;;;;;;;11.20;6.32;;;;;;;4.44;76.74;103476.91;5043893;28;20341;-75
2021/04/14 07:21:50;;;;;;;11.32;7.57;;;;;;;4.41;73.03;103468.84;5040084;28;20052;-74
2021/04/14 07:24:25;;;;;;;10.60;6.57;;;;;;;4.56;73.25;103462.28;5043462;28;20439;-75
2021/04/14 07:26:59;;;;;;;11.65;7.53;;;;;;;5.04;72.05;103464.81;5039605;28;20065;-75
2021/04/14 07:29:36;;;;;;;12.52;8.23;;;;;;;5.82;71.25;103458.38;5040901;28;20049;-75
2021/04/14 07:32:15;;;;;;;11.38;7.15;;;;;;;6.37;65.66;103459.09;5040269;28;20064;-77
2021/04/14 07:34:57;;;;;;;11.52;6.80;;;;;;;6.97;68.06;103460.63;5042039;28;20283;-77
2021/04/14 07:37:31;;;;;;;11.05;6.78;;;;;;;7.24;64.19;103454.19;5038534;28;20102;-77
2021/04/14 07:40:11;;;;;;;10.32;7.05;;;;;;;7.72;65.52;103449.94;5044086;28;20344;-76
2021/04/14 07:42:43;;;;;;;10.60;6.63;;;;;;;7.94;63.05;103449.53;5038120;28;20056;-75
2021/04/14 07:45:18;;;;;;;11.45;7.45;;;;;;;7.81;61.67;103451.00;5040926;28;20069;-75
2021/04/14 07:47:48;;;;;;;10.60;7.05;;;;;;;7.33;60.69;103442.88;5040208;28;20068;-77
2021/04/14 07:50:19;;;;;;;12.00;6.82;;;;;;;8.01;60.38;103445.22;5040079;28;20065;-77
2021/04/14 07:52:46;;;;;;;12.73;7.35;;;;;;;7.72;61.50;103445.50;5038424;28;20068;-76
2021/04/14 07:55:22;;;;;;;13.10;8.40;;;;;;;6.83;60.74;103454.09;5041299;28;20328;-75
2021/04/14 07:57:49;;;;;;;11.77;7.70;;;;;;;6.80;60.67;103449.59;5040292;28;20147;-75
2021/04/14 08:00:19;;;;;;;12.50;7.47;;;;;;;6.92;61.52;103452.53;5039988;28;20057;-75
2021/04/14 08:02:46;;;;;;;12.25;7.72;;;;;;;7.27;61.12;103446.28;5038495;28;20060;-76
2021/04/14 08:05:26;;;;;;;11.25;8.30;;;;;;;7.37;60.51;103437.69;5041452;28;20086;-73
2021/04/14 08:07:53;;;;;;;13.52;8.35;;;;;;;8.27;60.30;103439.50;5036344;28;20065;-75
2021/04/14 08:10:23;;;;;;;13.75;8.73;;;;;;;8.38;57.04;103435.31;5040458;28;20140;-74
2021/04/14 08:12:55;;;;;;;15.05;9.55;;;;;;;8.94;58.48;103434.53;5039659;28;20170;-75
2021/04/14 08:15:30;;;;;;;12.57;8.88;;;;;;;8.97;56.62;103437.22;5042397;28;20673;-74
2021/04/14 08:18:12;;;;;;;13.38;9.05;;;;;;;8.21;57.63;103432.31;5039989;28;20057;-73
2021/04/14 08:20:41;;;;;;;12.90;7.85;;;;;;;7.55;59.71;103436.28;5042091;28;20064;-74
2021/04/14 08:23:12;;;;;;;15.65;8.07;;;;;;;7.34;60.86;103437.59;5039168;28;20107;-73
2021/04/14 08:25:42;;;;;;;12.75;8.00;;;;;;;6.74;63.16;103438.81;5040715;28;20209;-73
2021/04/14 08:28:10;;;;;;;13.93;8.05;;;;;;;6.60;63.15;103441.09;5037927;28;20052;-73
2021/04/14 08:30:37;;;;;;;13.35;8.25;;;;;;;6.49;64.04;103439.94;5037241;28;20599;-73
2021/04/14 08:33:15;;;;;;;15.45;8.57;;;;;;;6.32;63.53;103451.00;5039989;28;20392;-72
2021/04/14 08:35:53;;;;;;;16.80;9.40;;;;;;;6.27;63.73;103449.97;5036784;28;20359;-72
2021/04/14 08:38:31;;;;;;;16.42;9.05;;;;;;;6.50;63.93;103447.03;5042739;28;20144;-72
2021/04/14 08:41:00;;;;;;;14.90;8.82;;;;;;;7.18;61.92;103441.66;5035847;28;20064;-72
2021/04/14 08:43:33;;;;;;;15.00;9.43;;;;;;;7.67;60.75;103441.88;5042275;28;20416;-72
2021/04/14 08:46:19;;;;;;;15.90;9.50;;;;;;;8.25;57.94;103444.81;5035732;28;20420;-71
2021/04/14 08:48:52;;;;;;;15.65;9.02;;;;;;;7.60;57.45;103453.22;5039671;28;20124;-71
2021/04/14 08:51:21;;;;;;;15.97;9.43;;;;;;;7.92;55.51;103445.06;5038283;28;20057;-71
2021/04/14 08:53:48;;;;;;;15.05;9.60;;;;;;;8.13;57.84;103452.56;5038625;28;20065;-72
2021/04/14 08:56:15;;;;;;;13.50;8.15;;;;;;;7.56;56.60;103444.31;5034876;28;20077;-71
2021/04/14 08:58:42;;;;;;;13.07;8.25;;;;;;;8.50;55.78;103446.19;5042922;28;20061;-70
2021/04/14 09:01:12;;;;;;;15.20;8.75;;;;;;;8.90;55.63;103451.31;5041597;28;20060;-71
2021/04/14 09:03:42;;;;;;;12.15;7.47;;;;;;;8.48;51.91;103447.94;5039262;28;20064;-71
2021/04/14 09:06:12;;;;;;;14.32;8.05;;;;;;;9.00;51.60;103447.91;5038649;28;20091;-72
2021/04/14 09:08:43;;;;;;;15.23;8.25;;;;;;;9.50;51.34;103445.13;5036319;28;20474;-72
2021/04/14 09:11:18;;;;;;;14.13;9.25;;;;;;;9.25;53.07;103451.88;5037527;28;20057;-71
2021/04/14 09:14:01;;;;;;;15.00;9.95;;;;;;;9.89;53.52;103442.94;5040036;28;20581;-70
2021/04/14 09:16:32;;;;;;;12.48;8.23;;;;;;;10.21;50.05;103437.97;5038106;28;20131;-73
2021/04/14 09:19:09;;;;;;;12.43;8.30;;;;;;;10.60;47.60;103441.09;5041812;28;20103;-74
2021/04/14 09:21:48;;;;;;;11.80;6.63;;;;;;;10.24;45.82;103443.34;5035895;28;20151;-74
2021/04/14 09:24:37;;;;;;;15.93;8.40;;;;;;;10.65;47.21;103439.34;5043395;28;20060;-75
2021/04/14 09:27:09;;;;;;;13.80;9.15;;;;;;;10.45;49.31;103436.47;5037402;28;20116;-75
2021/04/14 09:29:49;;;;;;;15.60;8.88;;;;;;;9.83;49.29;103442.88;5038055;28;20238;-75
2021/04/14 09:32:20;;;;;;;13.98;8.88;;;;;;;9.78;49.26;103439.28;5037695;28;20167;-75
2021/04/14 09:34:50;;;;;;;13.40;8.00;;;;;;;9.72;47.75;103442.72;5037469;28;20191;-76
2021/04/14 09:37:31;;;;;;;10.95;7.38;;;;;;;9.51;47.87;103446.03;5040005;28;20061;-74
2021/04/14 09:40:01;;;;;;;11.70;7.00;;;;;;;9.11;46.03;103443.66;5040466;28;20053;-74
2021/04/14 09:42:35;;;;;;;9.88;6.03;;;;;;;9.03;46.29;103450.66;5036428;28;20057;-74
2021/04/14 09:45:14;;;;;;;12.55;6.25;;;;;;;8.91;44.56;103450.44;5039821;28;20434;-73
2021/04/14 09:47:42;;;;;;;11.32;6.38;;;;;;;8.78;44.59;103449.34;5036621;28;20162;-72
2021/04/14 09:50:34;;;;;;;10.10;6.10;;;;;;;8.48;43.61;103441.69;5038802;28;20088;-72
2021/04/14 09:53:05;;;;;;;10.50;5.95;;;;;;;8.52;48.04;103439.13;5035266;28;20080;-72
2021/04/14 09:55:47;;;;;;;14.32;6.95;;;;;;;8.35;49.69;103449.44;5036356;28;20065;-71
2021/04/14 09:58:21;;;;;;;10.02;6.35;;;;;;;8.52;48.87;103444.44;5038011;28;20068;-71
2021/04/14 10:00:51;;;;;;;12.40;6.38;;;;;;;8.36;50.07;103445.91;5038896;28;20068;-74
2021/04/14 10:03:24;;;;;;;10.98;6.35;;;;;;;8.25;50.51;103444.81;5034411;28;20057;-73
2021/04/14 10:05:52;;;;;;;;;;;;;;;8.03;50.86;103440.84;5042517;28;20071;-73
2021/04/14 10:08:19;;;;;;;10.93;6.28;;;;;;;7.89;53.31;103442.31;5035400;28;19929;-73
2021/04/14 10:10:48;;;;;;;14.63;5.65;;;;;;;7.52;55.95;103455.69;5036783;28;20061;-74
2021/04/14 10:13:18;;;;;;;8.43;5.05;;;;;;;7.39;57.51;103456.28;5034849;28;20402;-74
2021/04/14 10:15:47;;;;;;;8.93;3.80;;;;;;;7.29;57.14;103455.19;5038916;28;20058;-74
2021/04/14 10:18:20;;;;;;;7.60;3.72;;;;;;;7.01;56.78;103464.25;5039201;28;20068;-74
2021/04/14 10:20:47;;;;;;;9.60;3.87;;;;;;;7.02;57.73;103463.41;5036803;28;20301;-74
2021/04/14 10:23:19;;;;;;;8.93;4.15;;;;;;;6.80;59.10;103461.97;5040040;28;20570;-74
2021/04/14 10:25:47;;;;;;;6.15;3.60;;;;;;;6.64;59.40;103466.88;5036912;28;20140;-74
2021/04/14 10:28:23;;;;;;;7.55;4.32;;;;;;;6.63;61.62;103470.38;5037394;28;20409;-74
2021/04/14 10:31:00;;;;;;;8.98;4.22;;;;;;;6.68;61.76;103471.41;5036026;28;20141;-74
2021/04/14 10:33:27;;;;;;;7.55;4.50;;;;;;;6.38;62.08;103470.59;5036682;28;20314;-74
2021/04/14 10:35:55;;;;;;;7.55;4.60;;;;;;;6.42;62.25;103480.41;5038793;28;20143;-74
2021/04/14 10:38:31;;;;;;;8.68;5.03;;;;;;;6.28;63.65;103485.34;5038420;28;20391;-72
2021/04/14 10:40:59;;;;;;;9.77;4.72;;;;;;;6.08;62.43;103482.09;5036677;28;20060;-72
2021/04/14 10:43:28;;;;;;;9.50;5.78;;;;;;;6.01;64.06;103477.50;5036377;28;20076;-72
2021/04/14 10:46:07;;;;;;;9.40;4.70;;;;;;;6.20;64.10;103476.25;5035267;28;20176;-71
2021/04/14 10:48:39;;;;;;;8.13;4.63;;;;;;;6.11;64.75;103477.81;5039568;28;20062;-71
2021/04/14 10:51:09;;;;;;;8.27;5.20;;;;;;;6.21;64.40;103473.66;5036631;28;20057;-71
2021/04/14 10:53:41;;;;;;;9.38;5.60;;;;;;;6.17;64.68;103474.44;5037748;28;20061;-71
2021/04/14 10:56:20;;;;;;;9.77;5.88;;;;;;;6.16;64.91;103475.28;5034416;28;20353;-72
2021/04/14 10:58:48;;;;;;;8.75;5.22;;;;;;;6.14;63.76;103474.34;5038988;28;20057;-71
2021/04/14 11:01:17;;;;;;;7.32;5.10;;;;;;;6.12;63.46;103465.44;5034791;28;20060;-71
2021/04/14 11:03:46;;;;;;;9.20;5.50;;;;;;;6.07;63.54;103459.13;5039103;28;21291;-72
2021/04/14 11:06:15;;;;;;;8.00;4.88;;;;;;;6.23;63.40;103464.00;5034766;28;20089;-71
2021/04/14 11:08:43;;;;;;;7.32;4.80;;;;;;;6.39;64.03;103459.13;5036235;28;20067;-73
2021/04/14 11:11:10;;;;;;;7.47;4.35;;;;;;;6.39;63.05;103457.38;5039618;28;20064;-72
2021/04/14 11:13:43;;;;;;;9.50;4.53;;;;;;;6.61;62.10;103465.91;5037904;28;20115;-72
2021/04/14 11:16:12;;;;;;;6.35;4.35;;;;;;;6.58;62.80;103458.75;5036921;28;20439;-72
2021/04/14 11:18:42;;;;;;;7.15;3.67;;;;;;;6.64;61.11;103450.97;5039379;28;20056;-73
2021/04/14 11:21:25;;;;;;;6.90;3.50;;;;;;;6.42;58.40;103454.81;5042043;28;20072;-71
2021/04/14 11:24:03;;;;;;;6.55;3.67;;;;;;;6.46;58.32;103447.81;5039297;28;20072;-72
2021/04/14 11:26:30;;;;;;;5.75;3.13;;;;;;;6.43;57.79;103453.03;5038979;28;20065;-70
2021/04/14 11:28:58;;;;;;;6.97;3.10;;;;;;;6.62;54.60;103450.00;5046072;28;20356;-72
2021/04/14 11:31:30;;;;;;;8.68;3.92;;;;;;;6.63;54.18;103448.25;5039322;28;20057;-71
2021/04/14 11:33:58;;;;;;;4.78;2.90;;;;;;;6.52;54.56;103447.97;5042240;28;20060;-73
2021/04/14 11:36:32;;;;;;;8.15;3.88;;;;;;;6.79;56.99;103449.53;5035051;28;20064;-72
2021/04/14 11:39:04;;;;;;;4.07;2.38;;;;;;;7.14;56.23;103447.75;5044167;28;20061;-71
2021/04/14 11:41:34;;;;;;;5.78;2.83;;;;;;;7.28;55.32;103440.13;5036248;28;20060;-71
2021/04/14 11:44:13;;;;;;;4.82;2.75;;;;;;;7.48;52.54;103440.56;5042243;28;20057;-71